Time;durP1;ratioP1;P1;durP2;ratioP2;P2;SDS_P1;SDS_P2;PMS_P1;PMS_P2;Temp;Humidity;BMP_temperature;BMP_pressure;BME280_temperature;BME280_humidity;BME280_pressure;Samples;Min_cycle;Max_cycle;Signal;HPM_P1;HPM_P2
2023/06/11 00:01:18;;;;;;;11.65;6.38;;;16.80;99.90;;;;;;5049790;28;20123;-63
2023/06/11 00:03:46;;;;;;;8.20;6.30;;;16.90;99.90;;;;;;5058119;28;20040;-63
2023/06/11 00:06:17;;;;;;;8.00;6.07;;;17.00;99.90;;;;;;5057775;28;20544;-63
2023/06/11 00:08:44;;;;;;;8.70;6.28;;;17.10;99.90;;;;;;5053908;28;20539;-63
2023/06/11 00:11:10;;;;;;;9.95;6.32;;;17.00;99.90;;;;;;5052028;28;20044;-63
2023/06/11 00:13:35;;;;;;;;;;;17.00;99.90;;;;;;5058387;28;20032;-63
2023/06/11 00:16:01;;;;;;;11.35;6.45;;;17.10;99.90;;;;;;5056729;28;19939;-63
2023/06/11 00:18:27;;;;;;;;;;;17.10;99.90;;;;;;5047842;28;20543;-63
2023/06/11 00:20:52;;;;;;;13.60;6.82;;;17.10;99.90;;;;;;5046204;28;19970;-63
2023/06/11 00:23:18;;;;;;;9.93;6.72;;;16.90;99.90;;;;;;5043002;28;20029;-63
2023/06/11 00:25:43;;;;;;;9.63;6.38;;;17.10;99.90;;;;;;5043629;28;20069;-63
2023/06/11 00:28:09;;;;;;;8.65;6.57;;;17.10;99.90;;;;;;5045687;28;20036;-64
2023/06/11 00:30:35;;;;;;;15.13;6.88;;;17.20;99.90;;;;;;5037030;28;20095;-63
2023/06/11 00:33:00;;;;;;;;;;;17.20;99.90;;;;;;5045642;28;20048;-63
2023/06/11 00:35:26;;;;;;;11.23;6.80;;;17.20;99.90;;;;;;5046598;28;19967;-64
2023/06/11 00:37:52;;;;;;;10.10;7.05;;;17.20;99.90;;;;;;5039701;28;20044;-64
2023/06/11 00:40:18;;;;;;;;;;;17.00;99.90;;;;;;5040938;28;20509;-64
2023/06/11 00:42:45;;;;;;;9.23;6.68;;;17.10;99.90;;;;;;5039803;28;19924;-63
2023/06/11 00:45:11;;;;;;;11.93;6.80;;;17.10;99.90;;;;;;5039256;28;20072;-63
2023/06/11 00:47:38;;;;;;;;;;;17.00;99.90;;;;;;5044220;28;20060;-62
2023/06/11 00:50:05;;;;;;;12.20;6.63;;;17.00;99.90;;;;;;5059219;28;19916;-64
2023/06/11 00:52:31;;;;;;;13.60;6.53;;;17.00;99.90;;;;;;5042091;28;20142;-63
2023/06/11 00:54:56;;;;;;;;;;;17.00;99.90;;;;;;5044564;28;20501;-63
2023/06/11 00:57:24;;;;;;;13.75;5.80;;;17.00;99.90;;;;;;5043438;28;19959;-63
2023/06/11 00:59:53;;;;;;;9.85;6.45;;;17.00;99.90;;;;;;5042671;28;20128;-64
2023/06/11 01:02:38;;;;;;;9.13;6.63;;;17.00;99.90;;;;;;5037063;28;20086;-63
2023/06/11 01:05:07;;;;;;;10.32;6.68;;;17.00;99.90;;;;;;5042208;28;20048;-63
2023/06/11 01:07:35;;;;;;;13.40;6.47;;;16.70;99.90;;;;;;5043711;28;20041;-63
2023/06/11 01:10:05;;;;;;;11.57;6.90;;;16.60;99.90;;;;;;5041340;28;20033;-62
2023/06/11 01:12:30;;;;;;;14.38;7.53;;;16.60;99.90;;;;;;5038680;28;20045;-64
2023/06/11 01:14:56;;;;;;;;;;;16.50;99.90;;;;;;5044391;28;20161;-63
2023/06/11 01:17:41;;;;;;;11.85;7.32;;;16.40;99.90;;;;;;5037539;28;19927;-63
2023/06/11 01:20:12;;;;;;;13.10;7.10;;;16.40;99.90;;;;;;5039295;28;20068;-63
2023/06/11 01:22:43;;;;;;;9.23;7.20;;;16.40;99.90;;;;;;5038329;28;20046;-63
2023/06/11 01:25:16;;;;;;;10.30;7.55;;;16.50;99.90;;;;;;5042608;28;20124;-63
2023/06/11 01:28:02;;;;;;;13.00;6.97;;;16.50;99.90;;;;;;5042473;28;20045;-62
2023/06/11 01:30:31;;;;;;;10.73;7.78;;;16.40;99.90;;;;;;5039226;28;20489;-63
2023/06/11 01:32:58;;;;;;;9.50;7.35;;;16.30;99.90;;;;;;5040429;28;20064;-64
2023/06/11 01:35:24;;;;;;;8.80;6.95;;;16.30;99.90;;;;;;5043737;28;20113;-61
2023/06/11 01:37:55;;;;;;;;;;;16.30;99.90;;;;;;5040325;28;20041;-63
2023/06/11 01:40:27;;;;;;;8.52;7.13;;;16.10;99.90;;;;;;5044165;28;19921;-63
2023/06/11 01:42:54;;;;;;;9.90;7.22;;;16.10;99.90;;;;;;5035289;28;20762;-63
2023/06/11 01:45:22;;;;;;;10.60;7.53;;;16.10;99.90;;;;;;5038684;28;20034;-62
2023/06/11 01:47:50;;;;;;;11.32;7.60;;;16.10;99.90;;;;;;5037494;28;20048;-63
2023/06/11 01:50:17;;;;;;;10.70;7.90;;;16.10;99.90;;;;;;5036769;28;20041;-63
2023/06/11 01:52:43;;;;;;;16.35;8.13;;;16.00;99.90;;;;;;5034813;28;20052;-63
2023/06/11 01:55:09;;;;;;;16.20;7.78;;;15.90;99.90;;;;;;5038825;28;20099;-63
2023/06/11 01:57:36;;;;;;;14.27;7.50;;;16.00;99.90;;;;;;5042682;28;20043;-62
2023/06/11 02:00:21;;;;;;;13.63;7.57;;;15.90;99.90;;;;;;5041340;28;20547;-63
2023/06/11 02:02:48;;;;;;;12.55;7.72;;;15.90;99.90;;;;;;5049318;28;20044;-64
2023/06/11 02:05:14;;;;;;;17.25;8.13;;;15.70;99.90;;;;;;5056037;28;20040;-63
2023/06/11 02:07:40;;;;;;;11.82;7.90;;;15.80;99.90;;;;;;5060345;28;20048;-63
2023/06/11 02:10:06;;;;;;;;;;;15.90;99.90;;;;;;5052066;28;20520;-63
2023/06/11 02:12:32;;;;;;;10.88;7.63;;;15.80;99.90;;;;;;5055636;28;19940;-63
2023/06/11 02:14:57;;;;;;;10.02;7.85;;;15.90;99.90;;;;;;5051545;28;20068;-62
2023/06/11 02:17:23;;;;;;;9.32;6.63;;;15.80;99.90;;;;;;5059603;28;20044;-64
2023/06/11 02:19:49;;;;;;;11.30;7.80;;;15.80;99.90;;;;;;5053296;28;20055;-63
2023/06/11 02:22:15;;;;;;;14.30;8.05;;;15.90;99.90;;;;;;5051540;28;20040;-64
2023/06/11 02:24:40;;;;;;;;;;;15.90;99.90;;;;;;5051308;28;20631;-63
2023/06/11 02:27:06;;;;;;;13.45;6.38;;;16.00;99.90;;;;;;5054850;28;19966;-63
2023/06/11 02:29:31;;;;;;;;;;;16.00;99.90;;;;;;5061347;28;20121;-64
2023/06/11 02:31:57;;;;;;;14.52;7.05;;;16.00;99.90;;;;;;5056493;28;19923;-63
2023/06/11 02:34:23;;;;;;;9.48;7.63;;;16.00;99.90;;;;;;5057648;28;20119;-63
2023/06/11 02:36:48;;;;;;;;;;;16.00;99.90;;;;;;5060197;28;20090;-63
2023/06/11 02:39:14;;;;;;;10.55;7.43;;;16.00;99.90;;;;;;5057719;28;19920;-63
2023/06/11 02:41:40;;;;;;;;;;;16.00;99.90;;;;;;5055428;28;20854;-64
2023/06/11 02:44:05;;;;;;;25.20;7.85;;;15.90;99.90;;;;;;5055846;28;19966;-62
2023/06/11 02:46:31;;;;;;;;;;;15.70;99.90;;;;;;5051172;28;20044;-62
2023/06/11 02:48:56;;;;;;;10.75;7.45;;;15.70;99.90;;;;;;5054724;28;19924;-62
2023/06/11 02:51:22;;;;;;;;;;;15.70;99.90;;;;;;5056993;28;20071;-62
2023/06/11 02:53:48;;;;;;;10.55;8.00;;;15.70;99.90;;;;;;5053918;28;19920;-61
2023/06/11 02:56:13;;;;;;;;;;;15.70;99.90;;;;;;5060235;28;20041;-62
2023/06/11 02:58:39;;;;;;;11.75;8.23;;;15.60;99.90;;;;;;5063383;28;19937;-63
2023/06/11 03:01:04;;;;;;;;;;;15.60;99.90;;;;;;5065952;28;20476;-62
2023/06/11 03:03:30;;;;;;;13.48;8.07;;;15.60;99.90;;;;;;5058153;28;19924;-62
2023/06/11 03:05:56;;;;;;;;;;;15.60;99.90;;;;;;5054903;28;20055;-63
2023/06/11 03:08:21;;;;;;;12.90;7.32;;;15.50;99.90;;;;;;5053279;28;19927;-64
2023/06/11 03:10:47;;;;;;;;;;;15.50;99.90;;;;;;5062011;28;20033;-62
2023/06/11 03:13:12;;;;;;;12.32;7.70;;;15.40;99.90;;;;;;5058889;28;20281;-62
2023/06/11 03:15:38;;;;;;;;;;;15.40;99.90;;;;;;5052953;28;20064;-62
2023/06/11 03:18:03;;;;;;;12.25;7.50;;;15.40;99.90;;;;;;5057790;28;19962;-62
2023/06/11 03:20:29;;;;;;;;;;;15.30;99.90;;;;;;5060656;28;20102;-63
2023/06/11 03:22:54;;;;;;;9.20;7.50;;;15.40;99.90;;;;;;5057613;28;19982;-63
2023/06/11 03:25:20;;;;;;;;;;;15.30;99.90;;;;;;5056658;28;20554;-62
2023/06/11 03:27:46;;;;;;;10.43;7.25;;;15.30;99.90;;;;;;5063859;28;19920;-62
2023/06/11 03:30:11;;;;;;;;;;;15.30;99.90;;;;;;5059700;28;20116;-63
2023/06/11 03:32:38;;;;;;;10.52;7.55;;;15.30;99.90;;;;;;5059312;28;19920;-63
2023/06/11 03:35:04;;;;;;;14.13;7.80;;;15.20;99.90;;;;;;5058361;28;20075;-63
2023/06/11 03:37:30;;;;;;;12.73;8.20;;;15.20;99.90;;;;;;5055340;28;20036;-63
2023/06/11 03:39:56;;;;;;;;;;;15.30;99.90;;;;;;5059452;28;20047;-63
2023/06/11 03:42:21;;;;;;;9.82;8.10;;;15.40;99.90;;;;;;5052695;28;19974;-63
2023/06/11 03:44:48;;;;;;;;;;;15.50;99.90;;;;;;5054276;28;20033;-62
2023/06/11 03:47:13;;;;;;;11.95;7.68;;;15.50;99.90;;;;;;5053205;28;19924;-62
2023/06/11 03:49:39;;;;;;;;;;;15.50;99.90;;;;;;5058146;28;20052;-62
2023/06/11 03:52:05;;;;;;;12.40;8.00;;;15.50;99.90;;;;;;5054053;28;19920;-62
2023/06/11 03:54:30;;;;;;;13.32;8.02;;;15.50;99.90;;;;;;5058365;28;20540;-61
2023/06/11 03:56:56;;;;;;;;;;;15.60;99.90;;;;;;5064262;28;20101;-63
2023/06/11 03:59:21;;;;;;;10.00;7.90;;;15.60;99.90;;;;;;5066559;28;20084;-62
2023/06/11 04:01:47;;;;;;;11.70;8.30;;;15.60;99.90;;;;;;5063929;28;20111;-62
2023/06/11 04:04:12;;;;;;;12.55;8.23;;;15.60;99.90;;;;;;5059110;28;20085;-62
2023/06/11 04:06:38;;;;;;;;;;;15.60;99.90;;;;;;5062053;28;20174;-62
2023/06/11 04:09:05;;;;;;;11.43;8.30;;;15.70;99.90;;;;;;5062316;28;19920;-62
2023/06/11 04:11:31;;;;;;;10.55;7.70;;;15.70;99.90;;;;;;5055478;28;20037;-62
2023/06/11 04:13:56;;;;;;;;;;;15.80;99.90;;;;;;5061430;28;20109;-62
2023/06/11 04:16:22;;;;;;;10.73;7.63;;;15.80;99.90;;;;;;5057277;28;20388;-63
2023/06/11 04:18:48;;;;;;;;;;;15.90;99.90;;;;;;5057288;28;20739;-63
2023/06/11 04:21:14;;;;;;;11.02;7.63;;;16.00;99.90;;;;;;5054495;28;19928;-62
2023/06/11 04:23:40;;;;;;;11.57;7.72;;;16.10;99.90;;;;;;5055531;28;20105;-62
2023/06/11 04:26:09;;;;;;;;;;;16.10;99.90;;;;;;5058874;28;20696;-62
2023/06/11 04:28:36;;;;;;;17.10;8.05;;;16.10;99.90;;;;;;5063408;28;19931;-64
2023/06/11 04:31:06;;;;;;;10.40;8.07;;;16.00;99.90;;;;;;5055286;28;20035;-64
2023/06/11 04:33:32;;;;;;;12.95;6.75;;;16.70;99.90;;;;;;5058112;28;20052;-63
2023/06/11 04:36:07;;;;;;;7.63;6.70;;;17.40;99.90;;;;;;5058590;28;20101;-63
2023/06/11 04:38:36;;;;;;;9.27;7.07;;;17.60;99.90;;;;;;5061299;28;20067;-63
2023/06/11 04:41:08;;;;;;;14.82;7.70;;;17.60;99.90;;;;;;5054067;28;20067;-63
2023/06/11 04:43:34;;;;;;;12.82;7.82;;;17.60;99.90;;;;;;5054540;28;20094;-62
2023/06/11 04:46:00;;;;;;;;;;;17.60;99.90;;;;;;5055110;28;20048;-62
2023/06/11 04:48:28;;;;;;;11.75;7.28;;;17.60;99.90;;;;;;5052427;28;19927;-63
2023/06/11 04:50:54;;;;;;;9.55;6.65;;;17.70;99.90;;;;;;5053215;28;20052;-62
2023/06/11 04:53:24;;;;;;;;;;;17.80;99.90;;;;;;5053736;28;20033;-62
2023/06/11 04:55:54;;;;;;;17.35;7.05;;;18.20;99.90;;;;;;5057105;28;19927;-63
2023/06/11 04:58:21;;;;;;;10.77;8.15;;;18.60;99.90;;;;;;5051523;28;20040;-63
2023/06/11 05:00:51;;;;;;;10.15;6.65;;;18.50;99.90;;;;;;5056747;28;20047;-63
2023/06/11 05:03:17;;;;;;;10.30;7.18;;;18.50;99.90;;;;;;5062144;28;20043;-62
2023/06/11 05:05:50;;;;;;;14.48;7.22;;;18.50;99.90;;;;;;5064009;28;20045;-62
2023/06/11 05:08:24;;;;;;;12.60;7.45;;;18.50;99.90;;;;;;5064245;28;20160;-63
2023/06/11 05:10:54;;;;;;;12.10;8.02;;;18.50;99.90;;;;;;5060859;28;20540;-63
2023/06/11 05:13:26;;;;;;;9.00;6.57;;;18.50;99.90;;;;;;5061307;28;20089;-63
2023/06/11 05:15:56;;;;;;;9.75;7.20;;;18.60;99.90;;;;;;5046087;28;20135;-62
2023/06/11 05:18:25;;;;;;;10.48;7.20;;;18.60;99.90;;;;;;5055759;28;20052;-63
2023/06/11 05:20:51;;;;;;;11.90;7.45;;;18.70;99.90;;;;;;5056065;28;20764;-63
2023/06/11 05:23:18;;;;;;;11.05;6.78;;;18.80;99.90;;;;;;5056430;28;20610;-63
2023/06/11 05:25:46;;;;;;;13.70;7.15;;;18.80;99.90;;;;;;5061898;28;20113;-63
2023/06/11 05:28:14;;;;;;;10.75;7.13;;;19.00;99.90;;;;;;5059226;28;20661;-62
2023/06/11 05:30:45;;;;;;;13.00;6.93;;;19.10;99.90;;;;;;5056113;28;20433;-62
2023/06/11 05:33:16;;;;;;;8.27;6.45;;;19.20;99.90;;;;;;5056638;28;20033;-63
2023/06/11 05:35:43;;;;;;;9.90;6.72;;;19.40;99.30;;;;;;5064329;28;20043;-63
2023/06/11 05:38:09;;;;;;;9.85;7.55;;;19.40;99.60;;;;;;5058741;28;20793;-63
2023/06/11 05:40:38;;;;;;;10.20;7.05;;;19.40;98.50;;;;;;5062153;28;20040;-62
2023/06/11 05:43:05;;;;;;;9.98;6.60;;;19.70;98.80;;;;;;5061665;28;20029;-63
2023/06/11 05:45:32;;;;;;;8.65;6.55;;;20.10;98.00;;;;;;5059265;28;20052;-63
2023/06/11 05:47:58;;;;;;;9.52;7.03;;;20.30;97.80;;;;;;5058875;28;20212;-62
2023/06/11 05:50:24;;;;;;;11.13;7.00;;;20.30;97.90;;;;;;5058308;28;20115;-63
2023/06/11 05:52:50;;;;;;;9.63;6.93;;;20.30;97.60;;;;;;5053517;28;20131;-63
2023/06/11 05:55:16;;;;;;;9.75;6.32;;;20.20;97.40;;;;;;5056436;28;20705;-62
2023/06/11 05:57:41;;;;;;;10.85;6.75;;;20.20;97.10;;;;;;5057260;28;20052;-62
2023/06/11 06:00:12;;;;;;;9.70;6.07;;;20.30;97.10;;;;;;5053543;28;20036;-63
2023/06/11 06:02:40;;;;;;;8.57;6.80;;;20.50;97.20;;;;;;5061128;28;20063;-63
2023/06/11 06:05:09;;;;;;;8.95;6.03;;;20.50;96.40;;;;;;5058615;28;20036;-61
2023/06/11 06:07:35;;;;;;;8.68;6.32;;;20.50;97.20;;;;;;5058981;28;20048;-63
2023/06/11 06:10:02;;;;;;;13.50;6.18;;;20.60;96.50;;;;;;5058966;28;20052;-63
2023/06/11 06:12:27;;;;;;;9.30;6.57;;;20.70;96.30;;;;;;5054552;28;20556;-63
2023/06/11 06:14:53;;;;;;;8.52;6.03;;;20.90;96.60;;;;;;5056138;28;20115;-63
2023/06/11 06:17:19;;;;;;;11.63;6.43;;;21.30;96.30;;;;;;5050194;28;20048;-63
2023/06/11 06:19:44;;;;;;;7.75;5.72;;;22.50;94.60;;;;;;5056470;28;20063;-63
2023/06/11 06:22:10;;;;;;;11.60;6.68;;;23.10;92.90;;;;;;5063772;28;20085;-63
2023/06/11 06:24:35;;;;;;;12.93;7.22;;;22.80;93.50;;;;;;5064546;28;20120;-63
2023/06/11 06:27:01;;;;;;;11.45;7.03;;;22.50;93.50;;;;;;5054723;28;20656;-64
2023/06/11 06:29:27;;;;;;;12.43;6.88;;;22.20;93.80;;;;;;5056519;28;20036;-64
2023/06/11 06:31:53;;;;;;;9.40;7.03;;;22.00;93.70;;;;;;5052805;28;20041;-63
2023/06/11 06:34:18;;;;;;;10.82;6.10;;;22.00;93.80;;;;;;5065924;28;20035;-64
2023/06/11 06:36:45;;;;;;;8.20;6.05;;;22.50;93.90;;;;;;5057501;28;20040;-65
2023/06/11 06:39:10;;;;;;;13.45;6.57;;;22.40;93.20;;;;;;5064732;28;20097;-63
2023/06/11 06:41:36;;;;;;;11.75;6.78;;;22.30;93.20;;;;;;5064137;28;20541;-64
2023/06/11 06:44:02;;;;;;;15.88;6.55;;;22.70;92.40;;;;;;5056390;28;20207;-63
2023/06/11 06:46:27;;;;;;;10.20;5.70;;;22.60;92.50;;;;;;5049418;28;20060;-65
2023/06/11 06:48:53;;;;;;;10.52;5.85;;;22.50;92.50;;;;;;5051415;28;20045;-63
2023/06/11 06:51:20;;;;;;;9.18;5.70;;;22.70;93.10;;;;;;5054902;28;20059;-64
2023/06/11 06:53:48;;;;;;;12.27;6.72;;;23.30;92.30;;;;;;5060439;28;20044;-65
2023/06/11 06:56:14;;;;;;;10.15;5.72;;;23.70;91.10;;;;;;5053200;28;20029;-63
2023/06/11 06:58:40;;;;;;;12.77;6.40;;;23.90;90.80;;;;;;5061125;28;20040;-63
2023/06/11 07:01:06;;;;;;;8.43;5.82;;;24.00;90.40;;;;;;5055611;28;20040;-63
2023/06/11 07:03:33;;;;;;;9.63;6.18;;;23.90;89.70;;;;;;5055494;28;20046;-61
2023/06/11 07:05:59;;;;;;;12.23;6.00;;;23.90;89.90;;;;;;5056277;28;20141;-64
2023/06/11 07:08:26;;;;;;;7.03;4.75;;;23.80;90.80;;;;;;5058677;28;20048;-64
2023/06/11 07:10:54;;;;;;;8.30;5.90;;;23.70;90.40;;;;;;5048596;28;20041;-63
2023/06/11 07:13:21;;;;;;;7.07;5.18;;;23.70;89.80;;;;;;5055389;28;20037;-65
2023/06/11 07:15:47;;;;;;;7.82;5.90;;;23.80;90.90;;;;;;5056012;28;20582;-63
2023/06/11 07:18:12;;;;;;;11.43;5.53;;;24.80;88.70;;;;;;5068534;28;20036;-63
2023/06/11 07:20:38;;;;;;;6.78;4.95;;;25.50;84.80;;;;;;5052361;28;20086;-62
2023/06/11 07:23:04;;;;;;;9.25;5.07;;;26.30;84.30;;;;;;5050054;28;20037;-62
2023/06/11 07:25:30;;;;;;;8.65;5.43;;;27.40;81.90;;;;;;5054130;28;20056;-62
2023/06/11 07:27:57;;;;;;;9.77;4.85;;;28.00;77.10;;;;;;5055467;28;20043;-63
2023/06/11 07:30:24;;;;;;;8.55;4.95;;;27.90;77.30;;;;;;5053523;28;20422;-63
2023/06/11 07:32:51;;;;;;;9.52;5.18;;;27.60;76.70;;;;;;5050557;28;20049;-63
2023/06/11 07:35:16;;;;;;;6.57;4.80;;;27.20;78.10;;;;;;5061117;28;20044;-63
2023/06/11 07:37:42;;;;;;;9.60;5.38;;;26.50;79.20;;;;;;5060465;28;20107;-62
2023/06/11 07:40:08;;;;;;;10.60;5.95;;;26.00;80.30;;;;;;5059242;28;20530;-62
2023/06/11 07:42:34;;;;;;;11.95;5.13;;;25.60;81.50;;;;;;5061608;28;20120;-63
2023/06/11 07:44:59;;;;;;;11.63;5.57;;;25.00;82.80;;;;;;5057373;28;20139;-63
2023/06/11 07:47:25;;;;;;;11.07;6.05;;;24.60;83.80;;;;;;5060874;28;20049;-62
2023/06/11 07:49:51;;;;;;;6.32;4.90;;;24.30;84.50;;;;;;5063258;28;20068;-63
2023/06/11 07:52:16;;;;;;;7.82;5.38;;;25.10;84.50;;;;;;5060357;28;20060;-63
2023/06/11 07:54:42;;;;;;;11.18;5.80;;;25.90;81.10;;;;;;5060912;28;20128;-62
2023/06/11 07:57:08;;;;;;;7.45;5.03;;;26.20;82.20;;;;;;5060772;28;20032;-62
2023/06/11 07:59:36;;;;;;;8.88;5.93;;;26.00;80.70;;;;;;5063260;28;20044;-62
2023/06/11 08:02:03;;;;;;;8.73;5.80;;;25.90;80.80;;;;;;5059952;28;20132;-61
2023/06/11 08:04:28;;;;;;;8.77;5.82;;;26.10;79.80;;;;;;5058177;28;20032;-60
2023/06/11 08:06:54;;;;;;;8.80;5.63;;;26.60;78.20;;;;;;5058248;28;20036;-62
2023/06/11 08:09:20;;;;;;;13.48;5.07;;;27.50;77.80;;;;;;5057262;28;20033;-62
2023/06/11 08:11:46;;;;;;;6.32;5.07;;;28.60;71.80;;;;;;5059481;28;20068;-61
2023/06/11 08:14:11;;;;;;;7.57;5.03;;;28.70;72.50;;;;;;5059312;28;20393;-61
2023/06/11 08:16:37;;;;;;;7.38;5.32;;;28.70;72.90;;;;;;5055074;28;20064;-63
2023/06/11 08:19:03;;;;;;;9.20;5.30;;;28.10;72.40;;;;;;5059647;28;20120;-62
2023/06/11 08:21:28;;;;;;;10.07;5.10;;;27.80;73.90;;;;;;5060484;28;20051;-62
2023/06/11 08:23:54;;;;;;;7.35;5.47;;;27.50;75.00;;;;;;5062432;28;20037;-62
2023/06/11 08:26:20;;;;;;;7.78;5.57;;;27.40;73.20;;;;;;5058835;28;20426;-63
2023/06/11 08:28:46;;;;;;;6.40;5.00;;;27.10;74.30;;;;;;5059822;28;20805;-63
2023/06/11 08:31:12;;;;;;;6.75;5.10;;;26.40;73.80;;;;;;5057202;28;20190;-63
2023/06/11 08:33:38;;;;;;;6.80;4.82;;;25.70;75.10;;;;;;5064253;28;20412;-62
2023/06/11 08:36:05;;;;;;;8.00;4.97;;;25.60;79.10;;;;;;5059007;28;20044;-62
2023/06/11 08:38:30;;;;;;;7.43;4.47;;;26.40;74.40;;;;;;5062486;28;20048;-62
2023/06/11 08:40:56;;;;;;;11.48;5.40;;;27.50;71.90;;;;;;5059229;28;20037;-63
2023/06/11 08:43:21;;;;;;;8.57;5.20;;;28.40;67.40;;;;;;5061064;28;21004;-63
2023/06/11 08:45:48;;;;;;;8.30;5.35;;;29.10;64.60;;;;;;5060332;28;20420;-63
2023/06/11 08:48:15;;;;;;;12.23;5.40;;;30.10;63.50;;;;;;5062588;28;20279;-62
2023/06/11 08:50:41;;;;;;;8.18;4.78;;;30.60;59.60;;;;;;5054412;28;20037;-62
2023/06/11 08:53:07;;;;;;;7.60;4.72;;;30.80;61.50;;;;;;5061036;28;20063;-62
2023/06/11 08:55:33;;;;;;;7.03;4.68;;;30.50;63.00;;;;;;5059708;28;20051;-62
2023/06/11 08:58:00;;;;;;;7.07;5.10;;;30.00;63.30;;;;;;5061487;28;20040;-62
2023/06/11 09:00:26;;;;;;;8.00;4.57;;;28.40;61.30;;;;;;5058388;28;20641;-61
2023/06/11 09:02:52;;;;;;;6.88;5.15;;;27.80;67.80;;;;;;5058722;28;20122;-60
2023/06/11 09:05:19;;;;;;;8.20;5.47;;;26.90;65.80;;;;;;5057890;28;20056;-62
2023/06/11 09:07:52;;;;;;;11.43;4.93;;;26.40;70.10;;;;;;5057636;28;20064;-62
2023/06/11 09:10:18;;;;;;;7.20;5.28;;;26.20;69.40;;;;;;5060969;28;20051;-63
2023/06/11 09:12:45;;;;;;;12.50;4.82;;;26.30;71.30;;;;;;5057144;28;20051;-63
2023/06/11 09:15:12;;;;;;;9.13;4.85;;;26.20;71.20;;;;;;5064662;28;20070;-60
2023/06/11 09:17:43;;;;;;;9.15;5.63;;;26.20;71.20;;;;;;5061105;28;20049;-62
2023/06/11 09:20:13;;;;;;;7.70;4.95;;;25.70;70.30;;;;;;5063202;28;20060;-61
2023/06/11 09:22:41;;;;;;;8.88;4.88;;;25.30;69.90;;;;;;5056557;28;20040;-62
2023/06/11 09:25:09;;;;;;;11.95;5.53;;;25.30;72.10;;;;;;5061988;28;20041;-63
2023/06/11 09:27:38;;;;;;;12.38;5.28;;;25.50;75.70;;;;;;5053334;28;20076;-62
2023/06/11 09:30:18;;;;;;;7.90;4.72;;;25.50;70.10;;;;;;5054598;28;21026;-62
2023/06/11 09:32:48;;;;;;;8.13;4.70;;;25.30;70.20;;;;;;5050314;28;20040;-62
2023/06/11 09:35:14;;;;;;;7.72;4.47;;;25.30;71.10;;;;;;5060988;28;20210;-63
2023/06/11 09:37:41;;;;;;;12.85;5.35;;;25.10;72.90;;;;;;5062983;28;20079;-60
2023/06/11 09:40:10;;;;;;;10.43;4.97;;;25.00;70.60;;;;;;5074495;28;20036;-64
2023/06/11 09:42:37;;;;;;;7.25;5.20;;;25.00;69.60;;;;;;5053878;28;20041;-63
2023/06/11 09:45:02;;;;;;;9.38;5.40;;;25.20;69.70;;;;;;5052094;28;20060;-62
2023/06/11 09:47:31;;;;;;;8.40;5.35;;;25.40;68.60;;;;;;5061295;28;20640;-62
2023/06/11 09:49:58;;;;;;;8.73;5.10;;;25.60;67.80;;;;;;5074779;28;20083;-63
2023/06/11 09:52:28;;;;;;;17.17;5.13;;;25.70;66.80;;;;;;5053662;28;20055;-62
2023/06/11 09:54:55;;;;;;;7.88;5.13;;;25.60;67.70;;;;;;5056219;28;20202;-62
2023/06/11 09:57:21;;;;;;;7.90;4.63;;;25.40;69.40;;;;;;5051929;28;20488;-63
2023/06/11 09:59:48;;;;;;;11.60;4.85;;;25.40;71.90;;;;;;5055640;28;20048;-63
2023/06/11 10:02:14;;;;;;;7.88;4.53;;;25.40;72.10;;;;;;5049849;28;20185;-62
2023/06/11 10:04:40;;;;;;;10.38;6.13;;;25.20;69.80;;;;;;5057084;28;20068;-63
2023/06/11 10:07:09;;;;;;;6.90;5.20;;;24.80;67.60;;;;;;5062765;28;20044;-62
2023/06/11 10:09:35;;;;;;;9.55;5.38;;;24.60;70.10;;;;;;5065871;28;20080;-61
2023/06/11 10:12:01;;;;;;;10.02;5.47;;;24.80;68.50;;;;;;5053315;28;20072;-61
2023/06/11 10:14:26;;;;;;;14.75;5.50;;;24.60;68.50;;;;;;5061057;28;20093;-61
2023/06/11 10:16:54;;;;;;;8.05;5.32;;;24.50;73.20;;;;;;5049912;28;20044;-61
2023/06/11 10:19:22;;;;;;;9.80;5.22;;;24.80;73.50;;;;;;5061337;28;20481;-62
2023/06/11 10:21:51;;;;;;;7.18;5.38;;;25.00;71.90;;;;;;5051644;28;20918;-61
2023/06/11 10:24:25;;;;;;;13.88;5.07;;;25.00;71.10;;;;;;5062305;28;20128;-62
2023/06/11 10:27:10;;;;;;;6.82;4.88;;;25.10;70.20;;;;;;5056219;28;20631;-62
2023/06/11 10:29:49;;;;;;;9.85;5.05;;;25.30;71.10;;;;;;5060145;28;20115;-62
2023/06/11 10:32:20;;;;;;;6.50;5.20;;;25.60;71.10;;;;;;5053948;28;20032;-62
2023/06/11 10:34:53;;;;;;;12.60;5.95;;;25.80;69.20;;;;;;5056687;28;20040;-61
2023/06/11 10:37:46;;;;;;;10.50;5.93;;;25.60;68.90;;;;;;5057055;28;20036;-62
2023/06/11 10:40:12;;;;;;;7.13;4.95;;;25.30;73.00;;;;;;5047359;28;20055;-62
2023/06/11 10:42:40;;;;;;;11.40;5.55;;;25.10;72.90;;;;;;5054715;28;20037;-62
2023/06/11 10:45:11;;;;;;;7.65;5.15;;;24.90;72.50;;;;;;5058523;28;20037;-62
2023/06/11 10:47:49;;;;;;;16.30;6.30;;;25.00;73.20;;;;;;5054228;28;20049;-62
2023/06/11 10:50:17;;;;;;;8.27;5.15;;;25.00;70.00;;;;;;5060476;28;20037;-62
2023/06/11 10:52:56;;;;;;;8.88;5.30;;;25.10;71.50;;;;;;5053335;28;20080;-63
2023/06/11 10:55:23;;;;;;;6.55;5.10;;;25.00;69.80;;;;;;5061862;28;20044;-62
2023/06/11 10:57:52;;;;;;;12.77;5.28;;;25.00;71.40;;;;;;5053179;28;20073;-62
2023/06/11 11:00:19;;;;;;;7.53;5.70;;;24.80;69.30;;;;;;5050281;28;20036;-62
2023/06/11 11:02:46;;;;;;;12.13;5.55;;;24.50;71.30;;;;;;5049609;28;20132;-61
2023/06/11 11:05:12;;;;;;;7.03;5.20;;;24.80;72.70;;;;;;5061835;28;20120;-62
2023/06/11 11:07:38;;;;;;;6.32;4.88;;;25.10;72.30;;;;;;5060287;28;20071;-62
2023/06/11 11:10:05;;;;;;;8.77;5.43;;;25.40;72.00;;;;;;5061169;28;20408;-62
2023/06/11 11:12:41;;;;;;;10.00;5.38;;;25.60;71.60;;;;;;5051867;28;20037;-62
2023/06/11 11:15:07;;;;;;;11.23;5.78;;;25.90;70.80;;;;;;5047458;28;20059;-62
2023/06/11 11:17:34;;;;;;;7.93;5.78;;;25.70;70.00;;;;;;5051826;28;20060;-62
2023/06/11 11:20:00;;;;;;;8.48;5.68;;;25.40;69.10;;;;;;5059828;28;20885;-62
2023/06/11 11:22:26;;;;;;;9.50;5.50;;;25.40;72.70;;;;;;5051520;28;20105;-63
2023/06/11 11:24:52;;;;;;;12.57;5.18;;;25.40;70.70;;;;;;5057640;28;20056;-63
2023/06/11 11:27:22;;;;;;;6.90;4.97;;;25.20;70.50;;;;;;5056919;28;20127;-61
2023/06/11 11:29:47;;;;;;;7.53;5.00;;;25.20;70.00;;;;;;5060531;28;20125;-62
2023/06/11 11:32:13;;;;;;;8.13;5.03;;;25.60;70.10;;;;;;5045773;28;20555;-62
2023/06/11 11:34:40;;;;;;;6.35;4.75;;;25.80;67.70;;;;;;5057810;28;20573;-63
2023/06/11 11:37:06;;;;;;;11.90;4.85;;;25.80;66.10;;;;;;5061120;28;20043;-63
2023/06/11 11:39:32;;;;;;;6.05;4.95;;;25.60;65.70;;;;;;5060089;28;20040;-63
2023/06/11 11:41:59;;;;;;;9.95;4.40;;;25.30;65.50;;;;;;5048358;28;20177;-63
2023/06/11 11:44:25;;;;;;;6.72;4.80;;;25.50;67.30;;;;;;5053313;28;20039;-62
2023/06/11 11:46:57;;;;;;;10.77;4.47;;;25.70;66.10;;;;;;5058140;28;20056;-63
2023/06/11 11:49:30;;;;;;;6.35;4.70;;;25.60;63.80;;;;;;5050542;28;20053;-63
2023/06/11 11:52:00;;;;;;;6.10;4.45;;;25.40;64.00;;;;;;5048402;28;20041;-63
2023/06/11 11:54:26;;;;;;;12.13;5.45;;;25.30;64.50;;;;;;5053996;28;20048;-63
2023/06/11 11:57:20;;;;;;;7.28;4.68;;;25.30;65.60;;;;;;5053239;28;20041;-62
2023/06/11 11:59:50;;;;;;;8.85;4.60;;;24.90;68.20;;;;;;5051430;28;20056;-63
2023/06/11 12:02:16;;;;;;;7.57;5.18;;;24.50;66.90;;;;;;5048845;28;20404;-62
2023/06/11 12:04:46;;;;;;;10.43;5.25;;;24.20;68.80;;;;;;5050510;28;20036;-62
2023/06/11 12:07:20;;;;;;;9.82;4.95;;;24.20;68.00;;;;;;5056922;28;20040;-63
2023/06/11 12:09:45;;;;;;;11.27;5.00;;;24.50;69.20;;;;;;5058830;28;20041;-62
2023/06/11 12:12:11;;;;;;;7.13;4.32;;;24.70;66.50;;;;;;5052582;28;20043;-62
2023/06/11 12:14:37;;;;;;;7.45;4.75;;;24.90;68.00;;;;;;5057217;28;20040;-62
2023/06/11 12:17:04;;;;;;;6.47;4.90;;;25.10;66.90;;;;;;5062272;28;20056;-62
2023/06/11 12:19:31;;;;;;;9.85;5.00;;;25.40;66.90;;;;;;5055762;28;20047;-62
2023/06/11 12:21:57;;;;;;;7.43;4.80;;;25.70;63.50;;;;;;5054809;28;20425;-62
2023/06/11 12:24:23;;;;;;;8.82;4.78;;;25.90;64.60;;;;;;5062453;28;20574;-62
2023/06/11 12:26:50;;;;;;;6.18;4.22;;;25.70;62.30;;;;;;5055752;28;20098;-62
2023/06/11 12:29:17;;;;;;;9.25;4.80;;;25.80;62.60;;;;;;5057997;28;20036;-62
2023/06/11 12:31:43;;;;;;;12.07;4.90;;;25.90;60.90;;;;;;5063077;28;20037;-61
2023/06/11 12:34:14;;;;;;;7.05;4.57;;;26.00;63.80;;;;;;5062979;28;20496;-62
2023/06/11 12:36:41;;;;;;;6.43;4.40;;;25.80;64.40;;;;;;5064001;28;20171;-62
2023/06/11 12:39:07;;;;;;;6.88;4.03;;;26.00;62.60;;;;;;5067878;28;20040;-62
2023/06/11 12:41:33;;;;;;;14.02;4.75;;;26.30;63.20;;;;;;5058173;28;20044;-62
2023/06/11 12:43:58;;;;;;;7.95;4.15;;;26.30;60.20;;;;;;5057548;28;20043;-62
2023/06/11 12:46:26;;;;;;;10.82;4.40;;;26.20;62.30;;;;;;5058622;28;20052;-62
2023/06/11 12:48:52;;;;;;;11.40;4.80;;;25.60;59.90;;;;;;5058480;28;20044;-62
2023/06/11 12:51:18;;;;;;;7.43;4.18;;;25.70;62.10;;;;;;5057980;28;20679;-62